sensor_id;sensor_type;location;lat;lon;timestamp;P1;durP1;ratioP1;P2;durP2;ratioP2
19810;SDS011;10065;49.632;8.346;2023-08-21T00:01:33;5.97;;;4.60;;
19810;SDS011;10065;49.632;8.346;2023-08-21T00:04:01;10.40;;;5.10;;
19810;SDS011;10065;49.632;8.346;2023-08-21T00:06:29;8.75;;;5.18;;
19810;SDS011;10065;49.632;8.346;2023-08-21T00:08:57;6.45;;;4.65;;
19810;SDS011;10065;49.632;8.346;2023-08-21T00:11:24;8.93;;;5.18;;
19810;SDS011;10065;49.632;8.346;2023-08-21T00:13:53;8.55;;;4.78;;
19810;SDS011;10065;49.632;8.346;2023-08-21T00:16:21;6.85;;;4.95;;
19810;SDS011;10065;49.632;8.346;2023-08-21T00:18:49;8.60;;;4.97;;
19810;SDS011;10065;49.632;8.346;2023-08-21T00:21:17;7.88;;;5.07;;
19810;SDS011;10065;49.632;8.346;2023-08-21T00:23:45;8.43;;;4.97;;
19810;SDS011;10065;49.632;8.346;2023-08-21T00:26:13;10.13;;;5.47;;
19810;SDS011;10065;49.632;8.346;2023-08-21T00:28:41;5.68;;;4.50;;
19810;SDS011;10065;49.632;8.346;2023-08-21T00:31:10;7.53;;;5.32;;
19810;SDS011;10065;49.632;8.346;2023-08-21T00:33:38;7.03;;;5.25;;
19810;SDS011;10065;49.632;8.346;2023-08-21T00:36:06;8.27;;;5.70;;
19810;SDS011;10065;49.632;8.346;2023-08-21T00:38:34;6.55;;;5.10;;
19810;SDS011;10065;49.632;8.346;2023-08-21T00:41:02;9.82;;;6.22;;
19810;SDS011;10065;49.632;8.346;2023-08-21T00:43:29;7.32;;;5.63;;
19810;SDS011;10065;49.632;8.346;2023-08-21T00:45:57;8.55;;;5.13;;
19810;SDS011;10065;49.632;8.346;2023-08-21T00:48:26;7.03;;;5.53;;
19810;SDS011;10065;49.632;8.346;2023-08-21T00:50:54;7.97;;;5.97;;
19810;SDS011;10065;49.632;8.346;2023-08-21T00:53:23;9.43;;;5.38;;
19810;SDS011;10065;49.632;8.346;2023-08-21T00:55:51;9.20;;;5.38;;
19810;SDS011;10065;49.632;8.346;2023-08-21T00:58:19;8.50;;;5.53;;
19810;SDS011;10065;49.632;8.346;2023-08-21T01:00:46;11.75;;;5.72;;
19810;SDS011;10065;49.632;8.346;2023-08-21T01:03:17;8.18;;;5.95;;
19810;SDS011;10065;49.632;8.346;2023-08-21T01:05:47;7.13;;;5.72;;
19810;SDS011;10065;49.632;8.346;2023-08-21T01:08:18;9.45;;;5.95;;
19810;SDS011;10065;49.632;8.346;2023-08-21T01:10:52;12.43;;;6.43;;
19810;SDS011;10065;49.632;8.346;2023-08-21T01:13:26;9.95;;;6.60;;
19810;SDS011;10065;49.632;8.346;2023-08-21T01:16:01;7.10;;;5.60;;
19810;SDS011;10065;49.632;8.346;2023-08-21T01:18:32;10.73;;;6.32;;
19810;SDS011;10065;49.632;8.346;2023-08-21T01:21:03;8.18;;;6.53;;
19810;SDS011;10065;49.632;8.346;2023-08-21T01:23:34;8.82;;;5.97;;
19810;SDS011;10065;49.632;8.346;2023-08-21T01:26:02;9.05;;;5.97;;
19810;SDS011;10065;49.632;8.346;2023-08-21T01:28:31;7.82;;;6.43;;
19810;SDS011;10065;49.632;8.346;2023-08-21T01:31:01;15.18;;;6.43;;
19810;SDS011;10065;49.632;8.346;2023-08-21T01:33:35;9.45;;;6.38;;
19810;SDS011;10065;49.632;8.346;2023-08-21T01:36:08;7.30;;;6.40;;
19810;SDS011;10065;49.632;8.346;2023-08-21T01:38:37;8.85;;;6.57;;
19810;SDS011;10065;49.632;8.346;2023-08-21T01:41:05;8.45;;;6.55;;
19810;SDS011;10065;49.632;8.346;2023-08-21T01:43:33;10.40;;;7.30;;
19810;SDS011;10065;49.632;8.346;2023-08-21T01:46:01;10.35;;;7.03;;
19810;SDS011;10065;49.632;8.346;2023-08-21T01:48:29;10.15;;;6.57;;
19810;SDS011;10065;49.632;8.346;2023-08-21T01:50:57;10.45;;;7.68;;
19810;SDS011;10065;49.632;8.346;2023-08-21T01:53:27;9.43;;;7.13;;
19810;SDS011;10065;49.632;8.346;2023-08-21T01:55:56;12.68;;;7.68;;
19810;SDS011;10065;49.632;8.346;2023-08-21T01:58:24;12.25;;;7.75;;
19810;SDS011;10065;49.632;8.346;2023-08-21T02:00:52;13.50;;;7.40;;
19810;SDS011;10065;49.632;8.346;2023-08-21T02:03:19;8.55;;;6.55;;
19810;SDS011;10065;49.632;8.346;2023-08-21T02:05:47;10.80;;;7.10;;
19810;SDS011;10065;49.632;8.346;2023-08-21T02:08:16;9.60;;;7.13;;
19810;SDS011;10065;49.632;8.346;2023-08-21T02:10:51;10.68;;;7.53;;
19810;SDS011;10065;49.632;8.346;2023-08-21T02:13:20;11.43;;;7.18;;
19810;SDS011;10065;49.632;8.346;2023-08-21T02:15:48;11.57;;;7.50;;
19810;SDS011;10065;49.632;8.346;2023-08-21T02:18:16;8.15;;;6.75;;
19810;SDS011;10065;49.632;8.346;2023-08-21T02:20:43;17.95;;;7.68;;
19810;SDS011;10065;49.632;8.346;2023-08-21T02:23:11;9.98;;;7.47;;
19810;SDS011;10065;49.632;8.346;2023-08-21T02:25:39;11.82;;;7.53;;
19810;SDS011;10065;49.632;8.346;2023-08-21T02:28:06;10.93;;;7.30;;
19810;SDS011;10065;49.632;8.346;2023-08-21T02:30:35;9.63;;;7.30;;
19810;SDS011;10065;49.632;8.346;2023-08-21T02:33:07;9.10;;;7.45;;
19810;SDS011;10065;49.632;8.346;2023-08-21T02:35:35;10.85;;;7.00;;
19810;SDS011;10065;49.632;8.346;2023-08-21T02:38:03;10.00;;;7.57;;
19810;SDS011;10065;49.632;8.346;2023-08-21T02:40:30;12.57;;;8.57;;
19810;SDS011;10065;49.632;8.346;2023-08-21T02:42:58;10.13;;;7.68;;
19810;SDS011;10065;49.632;8.346;2023-08-21T02:45:26;10.77;;;8.30;;
19810;SDS011;10065;49.632;8.346;2023-08-21T02:47:55;10.68;;;7.43;;
19810;SDS011;10065;49.632;8.346;2023-08-21T02:50:23;9.52;;;7.68;;
19810;SDS011;10065;49.632;8.346;2023-08-21T02:52:50;12.90;;;7.57;;
19810;SDS011;10065;49.632;8.346;2023-08-21T02:55:18;12.45;;;8.00;;
19810;SDS011;10065;49.632;8.346;2023-08-21T02:57:47;13.00;;;7.78;;
19810;SDS011;10065;49.632;8.346;2023-08-21T03:00:14;9.20;;;7.45;;
19810;SDS011;10065;49.632;8.346;2023-08-21T03:02:42;11.18;;;8.20;;
19810;SDS011;10065;49.632;8.346;2023-08-21T03:05:12;9.95;;;7.85;;
19810;SDS011;10065;49.632;8.346;2023-08-21T03:07:40;9.20;;;7.68;;
19810;SDS011;10065;49.632;8.346;2023-08-21T03:10:08;13.00;;;8.77;;
19810;SDS011;10065;49.632;8.346;2023-08-21T03:12:36;10.23;;;8.35;;
19810;SDS011;10065;49.632;8.346;2023-08-21T03:15:05;10.55;;;8.25;;
19810;SDS011;10065;49.632;8.346;2023-08-21T03:17:34;14.95;;;8.85;;
19810;SDS011;10065;49.632;8.346;2023-08-21T03:20:01;9.68;;;7.90;;
19810;SDS011;10065;49.632;8.346;2023-08-21T03:22:32;11.02;;;8.48;;
19810;SDS011;10065;49.632;8.346;2023-08-21T03:25:00;9.82;;;7.78;;
19810;SDS011;10065;49.632;8.346;2023-08-21T03:27:28;9.35;;;8.05;;
19810;SDS011;10065;49.632;8.346;2023-08-21T03:29:56;10.32;;;7.65;;
19810;SDS011;10065;49.632;8.346;2023-08-21T03:32:27;10.07;;;7.95;;
19810;SDS011;10065;49.632;8.346;2023-08-21T03:34:54;9.35;;;7.60;;
19810;SDS011;10065;49.632;8.346;2023-08-21T03:37:22;13.48;;;8.80;;
19810;SDS011;10065;49.632;8.346;2023-08-21T03:39:52;11.95;;;8.38;;
19810;SDS011;10065;49.632;8.346;2023-08-21T03:42:19;11.50;;;7.80;;
19810;SDS011;10065;49.632;8.346;2023-08-21T03:44:47;9.93;;;7.95;;
19810;SDS011;10065;49.632;8.346;2023-08-21T03:47:16;10.13;;;7.95;;
19810;SDS011;10065;49.632;8.346;2023-08-21T03:49:44;12.48;;;8.82;;
19810;SDS011;10065;49.632;8.346;2023-08-21T03:52:14;13.57;;;8.00;;
19810;SDS011;10065;49.632;8.346;2023-08-21T03:54:42;12.60;;;8.45;;
19810;SDS011;10065;49.632;8.346;2023-08-21T03:57:11;9.70;;;8.18;;
19810;SDS011;10065;49.632;8.346;2023-08-21T03:59:38;11.93;;;8.40;;
19810;SDS011;10065;49.632;8.346;2023-08-21T04:02:06;10.77;;;8.25;;
19810;SDS011;10065;49.632;8.346;2023-08-21T04:04:34;10.02;;;8.27;;
19810;SDS011;10065;49.632;8.346;2023-08-21T04:07:02;11.93;;;8.68;;
19810;SDS011;10065;49.632;8.346;2023-08-21T04:09:29;10.68;;;8.38;;
19810;SDS011;10065;49.632;8.346;2023-08-21T04:11:57;11.20;;;8.70;;
19810;SDS011;10065;49.632;8.346;2023-08-21T04:14:26;13.55;;;9.20;;
19810;SDS011;10065;49.632;8.346;2023-08-21T04:16:54;15.48;;;8.38;;
19810;SDS011;10065;49.632;8.346;2023-08-21T04:19:22;11.98;;;8.60;;
19810;SDS011;10065;49.632;8.346;2023-08-21T04:21:50;13.20;;;8.73;;
19810;SDS011;10065;49.632;8.346;2023-08-21T04:24:18;10.02;;;8.35;;
19810;SDS011;10065;49.632;8.346;2023-08-21T04:26:46;9.25;;;7.90;;
19810;SDS011;10065;49.632;8.346;2023-08-21T04:29:13;8.90;;;8.00;;
19810;SDS011;10065;49.632;8.346;2023-08-21T04:31:42;9.77;;;8.45;;
19810;SDS011;10065;49.632;8.346;2023-08-21T04:34:10;11.68;;;8.40;;
19810;SDS011;10065;49.632;8.346;2023-08-21T04:36:38;14.82;;;8.85;;
19810;SDS011;10065;49.632;8.346;2023-08-21T04:39:06;11.10;;;8.15;;
19810;SDS011;10065;49.632;8.346;2023-08-21T04:41:35;11.35;;;8.70;;
19810;SDS011;10065;49.632;8.346;2023-08-21T04:44:02;9.65;;;7.97;;
19810;SDS011;10065;49.632;8.346;2023-08-21T04:46:30;14.68;;;9.18;;
19810;SDS011;10065;49.632;8.346;2023-08-21T04:48:59;10.85;;;8.07;;
19810;SDS011;10065;49.632;8.346;2023-08-21T04:51:27;12.85;;;9.40;;
19810;SDS011;10065;49.632;8.346;2023-08-21T04:53:55;11.73;;;8.45;;
19810;SDS011;10065;49.632;8.346;2023-08-21T04:56:22;10.82;;;8.55;;
19810;SDS011;10065;49.632;8.346;2023-08-21T04:58:51;14.27;;;9.50;;
19810;SDS011;10065;49.632;8.346;2023-08-21T05:01:19;11.90;;;8.98;;
19810;SDS011;10065;49.632;8.346;2023-08-21T05:03:47;10.45;;;8.63;;
19810;SDS011;10065;49.632;8.346;2023-08-21T05:06:16;10.35;;;8.73;;
19810;SDS011;10065;49.632;8.346;2023-08-21T05:08:43;12.60;;;8.98;;
19810;SDS011;10065;49.632;8.346;2023-08-21T05:11:11;14.18;;;8.57;;
19810;SDS011;10065;49.632;8.346;2023-08-21T05:13:39;14.43;;;9.52;;
19810;SDS011;10065;49.632;8.346;2023-08-21T05:16:07;9.82;;;7.95;;
19810;SDS011;10065;49.632;8.346;2023-08-21T05:18:34;12.73;;;8.30;;
19810;SDS011;10065;49.632;8.346;2023-08-21T05:21:02;13.95;;;8.48;;
19810;SDS011;10065;49.632;8.346;2023-08-21T05:23:31;10.77;;;8.55;;
19810;SDS011;10065;49.632;8.346;2023-08-21T05:25:59;13.57;;;8.95;;
19810;SDS011;10065;49.632;8.346;2023-08-21T05:28:27;13.98;;;8.98;;
19810;SDS011;10065;49.632;8.346;2023-08-21T05:30:55;10.15;;;8.48;;
19810;SDS011;10065;49.632;8.346;2023-08-21T05:33:24;16.10;;;8.65;;
19810;SDS011;10065;49.632;8.346;2023-08-21T05:35:51;9.82;;;8.77;;
19810;SDS011;10065;49.632;8.346;2023-08-21T05:38:19;10.70;;;8.13;;
19810;SDS011;10065;49.632;8.346;2023-08-21T05:40:49;12.35;;;7.97;;
19810;SDS011;10065;49.632;8.346;2023-08-21T05:43:16;10.52;;;8.02;;
19810;SDS011;10065;49.632;8.346;2023-08-21T05:45:45;13.38;;;7.95;;
19810;SDS011;10065;49.632;8.346;2023-08-21T05:48:14;11.85;;;7.95;;
19810;SDS011;10065;49.632;8.346;2023-08-21T05:50:42;9.85;;;8.25;;
19810;SDS011;10065;49.632;8.346;2023-08-21T05:53:10;12.93;;;9.02;;
19810;SDS011;10065;49.632;8.346;2023-08-21T05:55:38;12.07;;;8.80;;
19810;SDS011;10065;49.632;8.346;2023-08-21T05:58:07;11.35;;;8.00;;
19810;SDS011;10065;49.632;8.346;2023-08-21T06:00:35;10.88;;;8.20;;
19810;SDS011;10065;49.632;8.346;2023-08-21T06:03:03;9.57;;;8.10;;
19810;SDS011;10065;49.632;8.346;2023-08-21T06:05:31;11.80;;;8.20;;
19810;SDS011;10065;49.632;8.346;2023-08-21T06:07:59;18.30;;;8.68;;
19810;SDS011;10065;49.632;8.346;2023-08-21T06:10:27;12.90;;;9.77;;
19810;SDS011;10065;49.632;8.346;2023-08-21T06:12:55;14.57;;;10.07;;
19810;SDS011;10065;49.632;8.346;2023-08-21T06:15:24;12.52;;;10.05;;
19810;SDS011;10065;49.632;8.346;2023-08-21T06:17:51;12.88;;;9.45;;
19810;SDS011;10065;49.632;8.346;2023-08-21T06:20:19;14.10;;;10.00;;
19810;SDS011;10065;49.632;8.346;2023-08-21T06:22:47;14.15;;;9.80;;
19810;SDS011;10065;49.632;8.346;2023-08-21T06:25:15;12.88;;;9.40;;
19810;SDS011;10065;49.632;8.346;2023-08-21T06:27:45;13.63;;;9.45;;
19810;SDS011;10065;49.632;8.346;2023-08-21T06:30:26;13.05;;;10.15;;
19810;SDS011;10065;49.632;8.346;2023-08-21T06:32:54;13.88;;;9.95;;
19810;SDS011;10065;49.632;8.346;2023-08-21T06:35:22;11.90;;;9.65;;
19810;SDS011;10065;49.632;8.346;2023-08-21T06:37:49;16.73;;;10.80;;
19810;SDS011;10065;49.632;8.346;2023-08-21T06:40:17;18.33;;;9.38;;
19810;SDS011;10065;49.632;8.346;2023-08-21T06:42:45;14.63;;;10.43;;
19810;SDS011;10065;49.632;8.346;2023-08-21T06:45:12;13.30;;;9.13;;
19810;SDS011;10065;49.632;8.346;2023-08-21T06:47:41;11.65;;;9.35;;
19810;SDS011;10065;49.632;8.346;2023-08-21T06:50:10;15.13;;;9.80;;
19810;SDS011;10065;49.632;8.346;2023-08-21T06:52:38;13.80;;;9.77;;
19810;SDS011;10065;49.632;8.346;2023-08-21T06:55:06;11.93;;;9.93;;
19810;SDS011;10065;49.632;8.346;2023-08-21T06:57:34;16.77;;;10.02;;
19810;SDS011;10065;49.632;8.346;2023-08-21T07:00:04;14.93;;;10.15;;
19810;SDS011;10065;49.632;8.346;2023-08-21T07:02:33;11.75;;;8.80;;
19810;SDS011;10065;49.632;8.346;2023-08-21T07:05:02;11.13;;;9.40;;
19810;SDS011;10065;49.632;8.346;2023-08-21T07:07:30;15.43;;;9.88;;
19810;SDS011;10065;49.632;8.346;2023-08-21T07:09:58;12.52;;;9.48;;
19810;SDS011;10065;49.632;8.346;2023-08-21T07:12:26;13.55;;;9.80;;
19810;SDS011;10065;49.632;8.346;2023-08-21T07:14:54;18.33;;;10.75;;
19810;SDS011;10065;49.632;8.346;2023-08-21T07:17:21;18.45;;;10.93;;
19810;SDS011;10065;49.632;8.346;2023-08-21T07:19:49;18.13;;;10.88;;
19810;SDS011;10065;49.632;8.346;2023-08-21T07:22:20;14.52;;;9.73;;
19810;SDS011;10065;49.632;8.346;2023-08-21T07:24:47;15.25;;;9.75;;
19810;SDS011;10065;49.632;8.346;2023-08-21T07:27:15;17.90;;;9.88;;
19810;SDS011;10065;49.632;8.346;2023-08-21T07:29:43;15.25;;;9.93;;
19810;SDS011;10065;49.632;8.346;2023-08-21T07:32:11;18.42;;;10.80;;
19810;SDS011;10065;49.632;8.346;2023-08-21T07:34:39;15.73;;;10.52;;
19810;SDS011;10065;49.632;8.346;2023-08-21T07:37:07;14.07;;;10.30;;
19810;SDS011;10065;49.632;8.346;2023-08-21T07:39:36;12.95;;;9.98;;
19810;SDS011;10065;49.632;8.346;2023-08-21T07:42:04;18.13;;;9.90;;
19810;SDS011;10065;49.632;8.346;2023-08-21T07:44:32;13.32;;;10.10;;
19810;SDS011;10065;49.632;8.346;2023-08-21T07:47:00;17.67;;;9.60;;
19810;SDS011;10065;49.632;8.346;2023-08-21T07:49:28;12.80;;;10.15;;
19810;SDS011;10065;49.632;8.346;2023-08-21T07:51:55;13.23;;;10.32;;
19810;SDS011;10065;49.632;8.346;2023-08-21T07:54:23;12.18;;;10.23;;
19810;SDS011;10065;49.632;8.346;2023-08-21T07:56:52;11.73;;;10.20;;
19810;SDS011;10065;49.632;8.346;2023-08-21T07:59:20;15.90;;;9.43;;
19810;SDS011;10065;49.632;8.346;2023-08-21T08:01:48;13.35;;;9.93;;
19810;SDS011;10065;49.632;8.346;2023-08-21T08:04:16;12.25;;;9.13;;
19810;SDS011;10065;49.632;8.346;2023-08-21T08:06:44;11.05;;;9.90;;
19810;SDS011;10065;49.632;8.346;2023-08-21T08:09:11;15.52;;;10.70;;
19810;SDS011;10065;49.632;8.346;2023-08-21T08:11:39;14.73;;;9.13;;
19810;SDS011;10065;49.632;8.346;2023-08-21T08:14:08;12.07;;;9.57;;
19810;SDS011;10065;49.632;8.346;2023-08-21T08:16:36;16.88;;;9.73;;
19810;SDS011;10065;49.632;8.346;2023-08-21T08:19:03;17.75;;;10.20;;
19810;SDS011;10065;49.632;8.346;2023-08-21T08:21:31;15.38;;;9.30;;
19810;SDS011;10065;49.632;8.346;2023-08-21T08:23:59;15.30;;;9.43;;
19810;SDS011;10065;49.632;8.346;2023-08-21T08:26:27;11.38;;;9.02;;
19810;SDS011;10065;49.632;8.346;2023-08-21T08:28:54;11.73;;;9.60;;
19810;SDS011;10065;49.632;8.346;2023-08-21T08:31:25;12.27;;;9.32;;
19810;SDS011;10065;49.632;8.346;2023-08-21T08:33:54;19.60;;;10.45;;
19810;SDS011;10065;49.632;8.346;2023-08-21T08:36:21;16.05;;;9.68;;
19810;SDS011;10065;49.632;8.346;2023-08-21T08:38:49;15.23;;;9.65;;
19810;SDS011;10065;49.632;8.346;2023-08-21T08:41:19;17.00;;;9.70;;
19810;SDS011;10065;49.632;8.346;2023-08-21T08:43:54;11.48;;;8.90;;
19810;SDS011;10065;49.632;8.346;2023-08-21T08:46:26;13.95;;;8.98;;
19810;SDS011;10065;49.632;8.346;2023-08-21T08:48:56;14.65;;;8.68;;
19810;SDS011;10065;49.632;8.346;2023-08-21T08:51:26;19.30;;;9.63;;
19810;SDS011;10065;49.632;8.346;2023-08-21T08:53:56;12.13;;;8.48;;
19810;SDS011;10065;49.632;8.346;2023-08-21T08:56:26;14.73;;;8.57;;
19810;SDS011;10065;49.632;8.346;2023-08-21T08:58:53;15.98;;;8.43;;
19810;SDS011;10065;49.632;8.346;2023-08-21T09:01:21;14.02;;;9.23;;
19810;SDS011;10065;49.632;8.346;2023-08-21T09:03:50;13.93;;;8.38;;
19810;SDS011;10065;49.632;8.346;2023-08-21T09:06:18;12.52;;;8.63;;
19810;SDS011;10065;49.632;8.346;2023-08-21T09:08:52;20.55;;;8.80;;
19810;SDS011;10065;49.632;8.346;2023-08-21T09:11:20;10.90;;;8.20;;
19810;SDS011;10065;49.632;8.346;2023-08-21T09:13:49;13.35;;;8.23;;
19810;SDS011;10065;49.632;8.346;2023-08-21T09:16:18;14.25;;;7.85;;
19810;SDS011;10065;49.632;8.346;2023-08-21T09:18:46;12.63;;;7.07;;
19810;SDS011;10065;49.632;8.346;2023-08-21T09:21:17;13.35;;;7.85;;
19810;SDS011;10065;49.632;8.346;2023-08-21T09:23:45;10.35;;;7.57;;
19810;SDS011;10065;49.632;8.346;2023-08-21T09:26:18;14.18;;;8.27;;
19810;SDS011;10065;49.632;8.346;2023-08-21T09:28:46;10.32;;;7.50;;
19810;SDS011;10065;49.632;8.346;2023-08-21T09:31:15;14.30;;;8.55;;
19810;SDS011;10065;49.632;8.346;2023-08-21T09:33:43;9.95;;;7.07;;
19810;SDS011;10065;49.632;8.346;2023-08-21T09:36:11;14.52;;;7.75;;
19810;SDS011;10065;49.632;8.346;2023-08-21T09:38:40;15.07;;;8.10;;
19810;SDS011;10065;49.632;8.346;2023-08-21T09:41:13;12.43;;;8.38;;
19810;SDS011;10065;49.632;8.346;2023-08-21T09:43:46;10.90;;;6.80;;
19810;SDS011;10065;49.632;8.346;2023-08-21T09:46:14;10.50;;;6.93;;
19810;SDS011;10065;49.632;8.346;2023-08-21T09:48:43;13.02;;;7.85;;
19810;SDS011;10065;49.632;8.346;2023-08-21T09:51:12;16.75;;;7.28;;
19810;SDS011;10065;49.632;8.346;2023-08-21T09:53:41;10.82;;;7.53;;
19810;SDS011;10065;49.632;8.346;2023-08-21T09:56:11;9.35;;;6.72;;
19810;SDS011;10065;49.632;8.346;2023-08-21T09:58:39;9.88;;;6.75;;
19810;SDS011;10065;49.632;8.346;2023-08-21T10:01:07;9.32;;;6.32;;
19810;SDS011;10065;49.632;8.346;2023-08-21T10:03:40;12.60;;;7.10;;
19810;SDS011;10065;49.632;8.346;2023-08-21T10:06:15;11.20;;;7.72;;
19810;SDS011;10065;49.632;8.346;2023-08-21T10:08:45;10.02;;;6.60;;
19810;SDS011;10065;49.632;8.346;2023-08-21T10:11:18;9.60;;;6.28;;
19810;SDS011;10065;49.632;8.346;2023-08-21T10:13:48;12.90;;;5.95;;
19810;SDS011;10065;49.632;8.346;2023-08-21T10:16:18;8.75;;;5.57;;
19810;SDS011;10065;49.632;8.346;2023-08-21T10:18:48;8.32;;;5.90;;
19810;SDS011;10065;49.632;8.346;2023-08-21T10:21:17;9.48;;;6.05;;
19810;SDS011;10065;49.632;8.346;2023-08-21T10:23:48;8.18;;;6.18;;
19810;SDS011;10065;49.632;8.346;2023-08-21T10:26:25;9.57;;;7.25;;
19810;SDS011;10065;49.632;8.346;2023-08-21T10:28:59;11.25;;;6.60;;
19810;SDS011;10065;49.632;8.346;2023-08-21T10:31:30;9.75;;;5.97;;
19810;SDS011;10065;49.632;8.346;2023-08-21T10:34:02;9.05;;;6.70;;
19810;SDS011;10065;49.632;8.346;2023-08-21T10:36:41;8.23;;;6.22;;
19810;SDS011;10065;49.632;8.346;2023-08-21T10:39:36;12.40;;;8.32;;
19810;SDS011;10065;49.632;8.346;2023-08-21T10:42:07;11.65;;;5.78;;
19810;SDS011;10065;49.632;8.346;2023-08-21T10:44:47;11.02;;;5.68;;
19810;SDS011;10065;49.632;8.346;2023-08-21T10:47:18;8.68;;;5.05;;
19810;SDS011;10065;49.632;8.346;2023-08-21T10:49:50;9.25;;;5.35;;
19810;SDS011;10065;49.632;8.346;2023-08-21T10:52:22;10.30;;;5.95;;
19810;SDS011;10065;49.632;8.346;2023-08-21T10:54:52;15.85;;;6.85;;
19810;SDS011;10065;49.632;8.346;2023-08-21T10:57:25;11.93;;;5.90;;
19810;SDS011;10065;49.632;8.346;2023-08-21T10:59:55;11.88;;;7.20;;
19810;SDS011;10065;49.632;8.346;2023-08-21T11:02:25;7.82;;;5.88;;
19810;SDS011;10065;49.632;8.346;2023-08-21T11:04:55;8.90;;;6.15;;
19810;SDS011;10065;49.632;8.346;2023-08-21T11:07:25;8.23;;;4.72;;
19810;SDS011;10065;49.632;8.346;2023-08-21T11:09:53;10.48;;;4.80;;
19810;SDS011;10065;49.632;8.346;2023-08-21T11:12:22;7.03;;;3.95;;
19810;SDS011;10065;49.632;8.346;2023-08-21T11:14:51;8.27;;;6.32;;
19810;SDS011;10065;49.632;8.346;2023-08-21T11:17:19;13.23;;;7.68;;
19810;SDS011;10065;49.632;8.346;2023-08-21T11:19:46;8.40;;;5.53;;
19810;SDS011;10065;49.632;8.346;2023-08-21T11:22:16;8.95;;;6.30;;
19810;SDS011;10065;49.632;8.346;2023-08-21T11:24:46;7.53;;;4.93;;
19810;SDS011;10065;49.632;8.346;2023-08-21T11:27:15;7.30;;;4.68;;
19810;SDS011;10065;49.632;8.346;2023-08-21T11:29:46;7.97;;;3.28;;
19810;SDS011;10065;49.632;8.346;2023-08-21T11:32:15;7.30;;;4.20;;
19810;SDS011;10065;49.632;8.346;2023-08-21T11:34:47;5.63;;;4.50;;
19810;SDS011;10065;49.632;8.346;2023-08-21T11:37:16;7.55;;;4.43;;
19810;SDS011;10065;49.632;8.346;2023-08-21T11:39:47;8.95;;;4.22;;
19810;SDS011;10065;49.632;8.346;2023-08-21T11:42:15;6.95;;;3.80;;
19810;SDS011;10065;49.632;8.346;2023-08-21T11:44:44;3.67;;;2.17;;
19810;SDS011;10065;49.632;8.346;2023-08-21T11:47:13;4.35;;;2.17;;
19810;SDS011;10065;49.632;8.346;2023-08-21T11:49:42;5.03;;;2.60;;
19810;SDS011;10065;49.632;8.346;2023-08-21T11:52:11;2.78;;;2.30;;
19810;SDS011;10065;49.632;8.346;2023-08-21T11:54:39;3.13;;;2.20;;
19810;SDS011;10065;49.632;8.346;2023-08-21T11:57:13;4.10;;;2.40;;
19810;SDS011;10065;49.632;8.346;2023-08-21T11:59:41;4.60;;;2.78;;
19810;SDS011;10065;49.632;8.346;2023-08-21T12:02:10;5.18;;;3.22;;
19810;SDS011;10065;49.632;8.346;2023-08-21T12:04:41;4.25;;;2.65;;
19810;SDS011;10065;49.632;8.346;2023-08-21T12:07:10;6.30;;;3.83;;
19810;SDS011;10065;49.632;8.346;2023-08-21T12:09:39;4.90;;;2.83;;
19810;SDS011;10065;49.632;8.346;2023-08-21T12:12:14;5.00;;;2.63;;
19810;SDS011;10065;49.632;8.346;2023-08-21T12:14:44;4.05;;;3.00;;
19810;SDS011;10065;49.632;8.346;2023-08-21T12:17:12;4.43;;;3.05;;
19810;SDS011;10065;49.632;8.346;2023-08-21T12:19:40;5.18;;;3.25;;
19810;SDS011;10065;49.632;8.346;2023-08-21T12:22:09;4.75;;;3.22;;
19810;SDS011;10065;49.632;8.346;2023-08-21T12:24:39;6.53;;;2.67;;
19810;SDS011;10065;49.632;8.346;2023-08-21T12:27:07;5.53;;;3.22;;
19810;SDS011;10065;49.632;8.346;2023-08-21T12:29:37;3.88;;;2.55;;
19810;SDS011;10065;49.632;8.346;2023-08-21T12:32:05;3.75;;;2.53;;
19810;SDS011;10065;49.632;8.346;2023-08-21T12:34:33;4.18;;;2.50;;
19810;SDS011;10065;49.632;8.346;2023-08-21T12:37:01;8.80;;;2.45;;
19810;SDS011;10065;49.632;8.346;2023-08-21T12:39:29;5.25;;;2.70;;
19810;SDS011;10065;49.632;8.346;2023-08-21T12:41:57;5.70;;;3.15;;
19810;SDS011;10065;49.632;8.346;2023-08-21T12:44:25;9.38;;;2.70;;
19810;SDS011;10065;49.632;8.346;2023-08-21T12:46:54;6.05;;;2.83;;
19810;SDS011;10065;49.632;8.346;2023-08-21T12:49:22;5.35;;;2.58;;
19810;SDS011;10065;49.632;8.346;2023-08-21T12:51:49;6.05;;;2.85;;
19810;SDS011;10065;49.632;8.346;2023-08-21T12:54:17;8.18;;;2.83;;
19810;SDS011;10065;49.632;8.346;2023-08-21T12:56:45;4.63;;;2.88;;
19810;SDS011;10065;49.632;8.346;2023-08-21T12:59:12;4.20;;;2.70;;
19810;SDS011;10065;49.632;8.346;2023-08-21T13:01:42;5.55;;;2.63;;
19810;SDS011;10065;49.632;8.346;2023-08-21T13:04:12;5.07;;;2.30;;
19810;SDS011;10065;49.632;8.346;2023-08-21T13:06:39;5.75;;;2.50;;
19810;SDS011;10065;49.632;8.346;2023-08-21T13:09:07;5.55;;;2.25;;
19810;SDS011;10065;49.632;8.346;2023-08-21T13:11:35;4.75;;;2.65;;
19810;SDS011;10065;49.632;8.346;2023-08-21T13:14:02;5.57;;;2.38;;
19810;SDS011;10065;49.632;8.346;2023-08-21T13:16:30;4.72;;;2.60;;
19810;SDS011;10065;49.632;8.346;2023-08-21T13:18:58;4.00;;;2.35;;
19810;SDS011;10065;49.632;8.346;2023-08-21T13:21:27;3.20;;;2.20;;
19810;SDS011;10065;49.632;8.346;2023-08-21T13:23:55;5.97;;;2.28;;
19810;SDS011;10065;49.632;8.346;2023-08-21T13:26:22;7.22;;;2.22;;
19810;SDS011;10065;49.632;8.346;2023-08-21T13:28:51;4.95;;;2.80;;
19810;SDS011;10065;49.632;8.346;2023-08-21T13:31:19;5.95;;;2.17;;
19810;SDS011;10065;49.632;8.346;2023-08-21T13:33:47;6.28;;;2.80;;
19810;SDS011;10065;49.632;8.346;2023-08-21T13:36:17;4.88;;;2.20;;
19810;SDS011;10065;49.632;8.346;2023-08-21T13:38:51;6.75;;;2.65;;
19810;SDS011;10065;49.632;8.346;2023-08-21T13:41:19;5.50;;;2.38;;
19810;SDS011;10065;49.632;8.346;2023-08-21T13:43:47;3.67;;;2.03;;
19810;SDS011;10065;49.632;8.346;2023-08-21T13:46:16;4.88;;;2.92;;
19810;SDS011;10065;49.632;8.346;2023-08-21T13:48:44;5.68;;;2.30;;
19810;SDS011;10065;49.632;8.346;2023-08-21T13:51:11;3.35;;;2.45;;
19810;SDS011;10065;49.632;8.346;2023-08-21T13:53:39;5.38;;;2.47;;
19810;SDS011;10065;49.632;8.346;2023-08-21T13:56:08;4.88;;;2.20;;
19810;SDS011;10065;49.632;8.346;2023-08-21T13:58:36;6.95;;;2.60;;
19810;SDS011;10065;49.632;8.346;2023-08-21T14:01:03;4.13;;;2.60;;
19810;SDS011;10065;49.632;8.346;2023-08-21T14:03:33;5.45;;;2.33;;
19810;SDS011;10065;49.632;8.346;2023-08-21T14:06:00;5.85;;;2.20;;
19810;SDS011;10065;49.632;8.346;2023-08-21T14:08:29;7.78;;;2.60;;
19810;SDS011;10065;49.632;8.346;2023-08-21T14:10:57;7.05;;;2.13;;
19810;SDS011;10065;49.632;8.346;2023-08-21T14:13:26;3.97;;;2.40;;
19810;SDS011;10065;49.632;8.346;2023-08-21T14:15:54;4.53;;;2.10;;
19810;SDS011;10065;49.632;8.346;2023-08-21T14:18:22;5.10;;;2.45;;
19810;SDS011;10065;49.632;8.346;2023-08-21T14:20:50;7.10;;;3.10;;
19810;SDS011;10065;49.632;8.346;2023-08-21T14:23:17;7.97;;;2.40;;
19810;SDS011;10065;49.632;8.346;2023-08-21T14:25:45;4.88;;;2.90;;
19810;SDS011;10065;49.632;8.346;2023-08-21T14:28:13;7.25;;;2.58;;
19810;SDS011;10065;49.632;8.346;2023-08-21T14:30:42;3.83;;;2.25;;
19810;SDS011;10065;49.632;8.346;2023-08-21T14:33:11;3.42;;;2.28;;
19810;SDS011;10065;49.632;8.346;2023-08-21T14:35:39;4.40;;;2.63;;
19810;SDS011;10065;49.632;8.346;2023-08-21T14:38:06;4.70;;;2.90;;
19810;SDS011;10065;49.632;8.346;2023-08-21T14:40:34;11.90;;;3.53;;
19810;SDS011;10065;49.632;8.346;2023-08-21T14:43:02;6.90;;;2.75;;
19810;SDS011;10065;49.632;8.346;2023-08-21T14:45:30;7.55;;;2.50;;
19810;SDS011;10065;49.632;8.346;2023-08-21T14:47:59;3.70;;;2.53;;
19810;SDS011;10065;49.632;8.346;2023-08-21T14:50:26;4.05;;;2.30;;